Time;durP1;ratioP1;P1;durP2;ratioP2;P2;SDS_P1;SDS_P2;PMS_P1;PMS_P2;Temp;Humidity;BMP_temperature;BMP_pressure;BME280_temperature;BME280_humidity;BME280_pressure;Samples;Min_cycle;Max_cycle;Signal;HPM_P1;HPM_P2
2022/06/12 00:00:01;;;;;;;0.85;0.10;;;13.40;99.90;;;;;;5055036;28;20423;-85
2022/06/12 00:02:26;;;;;;;0.63;0.10;;;13.40;99.90;;;;;;5058941;28;20086;-84
2022/06/12 00:04:52;;;;;;;1.27;0.20;;;13.30;99.90;;;;;;5060935;28;20059;-84
2022/06/12 00:07:18;;;;;;;1.42;0.10;;;13.20;99.90;;;;;;5054017;28;20040;-83
2022/06/12 00:09:44;;;;;;;0.80;0.10;;;13.20;99.90;;;;;;5054097;28;20579;-82
2022/06/12 00:12:10;;;;;;;1.02;0.10;;;13.20;99.90;;;;;;5056332;28;20035;-84
2022/06/12 00:14:36;;;;;;;0.43;0.10;;;13.20;99.90;;;;;;5060121;28;20029;-84
2022/06/12 00:17:02;;;;;;;0.95;0.10;;;13.10;99.90;;;;;;5054143;28;20025;-84
2022/06/12 00:19:30;;;;;;;1.25;0.10;;;13.10;99.90;;;;;;5068452;28;20039;-84
2022/06/12 00:21:56;;;;;;;0.60;0.10;;;13.10;99.90;;;;;;5065655;28;20079;-84
2022/06/12 00:24:23;;;;;;;0.73;0.10;;;13.10;99.90;;;;;;5058837;28;20021;-84
2022/06/12 00:26:51;;;;;;;1.20;0.10;;;13.00;99.90;;;;;;5052898;28;20029;-83
2022/06/12 00:29:24;;;;;;;1.00;0.10;;;13.00;99.90;;;;;;5059557;28;20472;-84
2022/06/12 00:32:01;;;;;;;1.02;0.10;;;12.90;99.90;;;;;;5067695;28;20197;-84
2022/06/12 00:34:31;;;;;;;1.33;0.13;;;12.80;99.90;;;;;;5068443;28;20407;-84
2022/06/12 00:36:57;;;;;;;1.80;0.10;;;12.80;99.90;;;;;;5067191;28;20143;-84
2022/06/12 00:39:24;;;;;;;0.52;0.20;;;12.80;99.90;;;;;;5038593;28;20029;-84
2022/06/12 00:41:52;;;;;;;1.35;0.20;;;12.80;99.90;;;;;;5053932;28;20131;-84
2022/06/12 00:44:22;;;;;;;0.90;0.10;;;12.80;99.90;;;;;;5058919;28;20032;-83
2022/06/12 00:46:59;;;;;;;0.75;0.15;;;12.80;99.90;;;;;;5051064;28;20033;-84
2022/06/12 00:49:36;;;;;;;1.33;0.10;;;12.80;99.90;;;;;;5051782;28;20594;-84
2022/06/12 00:52:28;;;;;;;3.20;0.20;;;12.70;99.90;;;;;;5058488;28;20036;-83
2022/06/12 00:54:59;;;;;;;1.35;0.20;;;12.80;99.90;;;;;;5050187;28;20050;-84
2022/06/12 00:57:26;;;;;;;0.65;0.15;;;12.90;99.90;;;;;;5041561;28;20036;-83
2022/06/12 00:59:57;;;;;;;0.65;0.10;;;12.80;99.90;;;;;;5058574;28;20392;-84
2022/06/12 01:02:33;;;;;;;1.20;0.20;;;12.80;99.90;;;;;;5055175;28;20044;-84
2022/06/12 01:07:52;;;;;;;2.00;0.35;;;12.80;99.90;;;;;;5070171;28;20458;-85
2022/06/12 01:10:19;;;;;;;1.63;0.20;;;12.70;99.90;;;;;;5057905;28;20501;-83
2022/06/12 01:12:50;;;;;;;1.33;0.17;;;12.70;99.90;;;;;;5050682;28;20037;-83
2022/06/12 01:15:48;;;;;;;1.55;0.20;;;12.70;99.90;;;;;;5050233;28;20032;-83
2022/06/12 01:18:16;;;;;;;0.60;0.10;;;12.70;99.90;;;;;;5028957;28;20045;-84
2022/06/12 01:20:57;;;;;;;2.25;0.20;;;12.60;99.90;;;;;;5066606;28;20033;-84
2022/06/12 01:23:23;;;;;;;1.17;0.30;;;12.70;99.90;;;;;;5068693;28;20036;-84
2022/06/12 01:26:10;;;;;;;1.67;0.20;;;12.60;99.90;;;;;;5058286;28;20029;-83
2022/06/12 01:28:52;;;;;;;0.73;0.10;;;12.70;99.90;;;;;;5052939;28;20103;-84
2022/06/12 01:31:56;;;;;;;1.35;0.20;;;12.60;99.90;;;;;;5070572;28;20032;-84
2022/06/12 01:34:38;;;;;;;1.25;0.20;;;12.70;99.90;;;;;;5065923;28;22412;-84
2022/06/12 01:37:21;;;;;;;2.15;0.20;;;12.70;99.90;;;;;;5068802;28;20056;-83
2022/06/12 01:39:58;;;;;;;1.15;0.20;;;12.60;99.90;;;;;;5060651;28;20025;-84
2022/06/12 01:42:59;;;;;;;0.98;0.20;;;12.60;99.90;;;;;;5069135;28;20051;-82
2022/06/12 01:46:06;;;;;;;1.85;0.13;;;12.50;99.90;;;;;;5066483;28;20043;-83
2022/06/12 01:48:41;;;;;;;1.73;0.20;;;12.50;99.90;;;;;;5020748;28;20044;-83
2022/06/12 01:51:25;;;;;;;1.15;0.20;;;12.50;99.90;;;;;;5068319;28;20040;-84
2022/06/12 01:54:15;;;;;;;1.23;0.20;;;12.40;99.90;;;;;;5054132;28;20048;-83
2022/06/12 01:57:09;;;;;;;0.77;0.20;;;12.30;99.90;;;;;;5058816;28;20028;-83
2022/06/12 01:59:42;;;;;;;2.00;0.30;;;12.30;99.90;;;;;;5054399;28;20040;-84
2022/06/12 02:02:17;;;;;;;2.58;0.20;;;12.30;99.90;;;;;;5049676;28;20412;-84
2022/06/12 02:04:54;;;;;;;2.80;0.43;;;12.20;99.90;;;;;;5066059;28;20025;-83
2022/06/12 02:07:27;;;;;;;1.73;0.30;;;12.20;99.90;;;;;;5057463;28;20186;-84
2022/06/12 02:10:05;;;;;;;1.45;0.25;;;12.20;99.90;;;;;;5054828;28;20112;-84
2022/06/12 02:15:45;;;;;;;2.25;0.30;;;12.20;99.90;;;;;;5051333;28;20175;-83
2022/06/12 02:18:20;;;;;;;2.03;0.20;;;12.10;99.90;;;;;;5050487;28;20033;-83
2022/06/12 02:21:07;;;;;;;1.83;0.30;;;12.10;99.90;;;;;;5054437;28;20036;-84
2022/06/12 02:23:46;;;;;;;2.28;0.30;;;12.10;99.90;;;;;;5068082;28;20030;-83
2022/06/12 02:26:16;;;;;;;2.72;0.60;;;12.00;99.90;;;;;;5052707;28;20128;-83
2022/06/12 02:28:56;;;;;;;1.27;0.30;;;11.90;99.90;;;;;;5052032;28;20028;-84
2022/06/12 02:31:34;;;;;;;1.00;0.30;;;11.90;99.90;;;;;;5053519;28;20116;-84
2022/06/12 02:34:06;;;;;;;0.95;0.30;;;11.90;99.90;;;;;;5054021;28;20085;-85
2022/06/12 02:36:37;;;;;;;2.13;0.30;;;11.80;99.90;;;;;;5057087;28;20056;-82
2022/06/12 02:39:12;;;;;;;1.48;0.30;;;11.70;99.90;;;;;;5052282;28;20125;-84
2022/06/12 02:41:44;;;;;;;1.38;0.30;;;11.70;99.90;;;;;;5067616;28;20047;-84
2022/06/12 02:44:38;;;;;;;1.70;0.30;;;11.70;99.90;;;;;;5051437;28;20044;-84
2022/06/12 02:47:08;;;;;;;2.40;0.30;;;11.70;99.90;;;;;;5051382;28;20032;-83
2022/06/12 02:49:37;;;;;;;3.38;0.35;;;11.70;99.90;;;;;;5049713;28;20033;-84
2022/06/12 02:52:20;;;;;;;0.82;0.30;;;11.60;99.90;;;;;;5052089;28;20033;-83
2022/06/12 02:55:10;;;;;;;2.03;0.30;;;11.70;99.90;;;;;;5051794;28;20536;-87
2022/06/12 02:58:20;;;;;;;1.95;0.30;;;11.70;99.90;;;;;;5055479;28;20028;-84
2022/06/12 03:01:05;;;;;;;2.05;0.30;;;11.70;99.90;;;;;;5054752;28;20049;-84
2022/06/12 03:04:04;;;;;;;2.30;0.30;;;11.60;99.90;;;;;;5052466;28;20054;-83
2022/06/12 03:06:30;;;;;;;2.03;0.20;;;11.70;99.90;;;;;;5045071;28;20545;-83
2022/06/12 03:08:58;;;;;;;2.67;0.30;;;11.80;99.90;;;;;;5065233;28;20376;-82
2022/06/12 03:11:33;;;;;;;2.10;0.30;;;11.80;99.90;;;;;;5067193;28;20039;-82
2022/06/12 03:14:00;;;;;;;1.95;0.20;;;11.90;99.90;;;;;;5058723;28;20407;-82
2022/06/12 03:16:32;;;;;;;1.45;0.30;;;11.80;99.90;;;;;;5069530;28;20115;-82
2022/06/12 03:19:20;;;;;;;1.75;0.30;;;11.80;99.90;;;;;;5059683;28;21974;-83
2022/06/12 03:22:12;;;;;;;2.00;0.30;;;11.80;99.90;;;;;;5053678;28;20114;-83
2022/06/12 03:24:54;;;;;;;3.83;0.30;;;11.90;99.90;;;;;;5060779;28;20033;-83
2022/06/12 03:27:27;;;;;;;1.27;0.22;;;11.90;99.90;;;;;;5069678;28;20028;-85
2022/06/12 03:30:00;;;;;;;1.58;0.30;;;11.80;99.90;;;;;;5059623;28;20031;-83
2022/06/12 03:32:55;;;;;;;1.80;0.20;;;11.80;99.90;;;;;;5038937;28;20033;-83
2022/06/12 03:35:30;;;;;;;2.45;0.30;;;11.80;99.90;;;;;;5053530;28;20029;-84
2022/06/12 03:38:02;;;;;;;1.35;0.25;;;11.90;99.90;;;;;;5060076;28;20490;-83
2022/06/12 03:40:48;;;;;;;1.60;0.30;;;11.80;99.90;;;;;;5046347;28;20032;-83
2022/06/12 03:43:17;;;;;;;4.47;0.30;;;11.80;99.90;;;;;;5056157;28;20476;-83
2022/06/12 03:46:15;;;;;;;3.07;0.30;;;11.80;99.90;;;;;;5053828;28;20055;-83
2022/06/12 03:49:11;;;;;;;3.78;0.30;;;11.80;99.90;;;;;;5041472;28;20045;-81
2022/06/12 03:52:00;;;;;;;2.10;0.28;;;11.80;99.90;;;;;;5071297;28;20483;-83
2022/06/12 03:54:40;;;;;;;2.53;0.13;;;11.90;99.90;;;;;;5069412;28;20166;-82
2022/06/12 04:00:02;;;;;;;1.08;0.22;;;12.00;99.90;;;;;;5058751;28;20386;-83
2022/06/12 04:02:39;;;;;;;2.33;0.20;;;12.00;99.90;;;;;;5055423;28;20083;-83
2022/06/12 04:05:08;;;;;;;2.28;0.22;;;12.10;99.90;;;;;;5071205;28;20388;-84
2022/06/12 04:07:38;;;;;;;1.55;0.30;;;12.10;99.90;;;;;;5071003;28;20602;-83
2022/06/12 04:10:04;;;;;;;;;;;12.10;99.90;;;;;;5055777;28;20037;-82
2022/06/12 04:12:33;;;;;;;1.58;0.30;;;12.10;99.90;;;;;;5071384;28;19916;-82
2022/06/12 04:15:07;;;;;;;2.38;0.20;;;12.10;99.90;;;;;;5037103;28;20483;-82
2022/06/12 04:17:33;;;;;;;2.33;0.30;;;12.00;99.90;;;;;;5071085;28;20037;-82
2022/06/12 04:19:59;;;;;;;1.58;0.30;;;12.20;99.90;;;;;;5052471;28;20036;-84
2022/06/12 04:22:34;;;;;;;1.52;0.35;;;12.30;99.90;;;;;;5057966;28;20044;-83
2022/06/12 04:25:07;;;;;;;3.30;0.38;;;12.30;99.90;;;;;;5038925;28;20381;-83
2022/06/12 04:27:37;;;;;;;1.00;0.20;;;12.50;99.90;;;;;;5058349;28;20086;-81
2022/06/12 04:30:15;;;;;;;1.73;0.30;;;12.60;99.90;;;;;;5042006;28;20139;-83
2022/06/12 04:32:41;;;;;;;1.92;0.30;;;12.70;99.90;;;;;;5047991;28;20029;-82
2022/06/12 04:35:09;;;;;;;3.33;0.40;;;12.80;99.90;;;;;;5055827;28;20854;-83
2022/06/12 04:37:35;;;;;;;2.05;0.32;;;12.90;99.90;;;;;;5052250;28;20052;-82
2022/06/12 04:40:04;;;;;;;3.60;0.40;;;13.00;99.90;;;;;;5067954;28;20129;-83
2022/06/12 04:42:31;;;;;;;3.58;0.30;;;13.10;99.90;;;;;;5066614;28;20070;-83
2022/06/12 04:45:00;;;;;;;1.73;0.30;;;13.20;99.90;;;;;;5052027;28;20025;-82
2022/06/12 04:47:29;;;;;;;2.15;0.30;;;13.50;99.90;;;;;;5067176;28;20025;-82
2022/06/12 04:49:55;;;;;;;1.10;0.20;;;13.60;99.90;;;;;;5057505;28;20078;-81
2022/06/12 04:52:24;;;;;;;2.72;0.30;;;13.80;99.90;;;;;;5066806;28;20094;-81
2022/06/12 04:54:50;;;;;;;2.58;0.50;;;13.80;99.90;;;;;;5057940;28;20029;-83
2022/06/12 04:57:17;;;;;;;2.90;0.50;;;14.00;99.90;;;;;;5066586;28;20409;-82
2022/06/12 04:59:44;;;;;;;1.42;0.28;;;14.20;99.90;;;;;;5057598;28;20869;-82
2022/06/12 05:02:11;;;;;;;2.70;0.30;;;14.30;99.90;;;;;;5057989;28;20040;-82
2022/06/12 05:04:37;;;;;;;5.32;0.63;;;14.40;99.90;;;;;;5057766;28;20109;-82
2022/06/12 05:07:04;;;;;;;1.98;0.30;;;14.50;99.90;;;;;;5050693;28;20039;-81
2022/06/12 05:09:33;;;;;;;5.50;0.50;;;14.60;99.90;;;;;;5051688;28;20507;-81
2022/06/12 05:11:59;;;;;;;3.80;0.35;;;14.80;99.90;;;;;;5050603;28;20134;-83
2022/06/12 05:14:25;;;;;;;4.47;0.40;;;14.80;99.90;;;;;;5067733;28;20064;-82
2022/06/12 05:17:04;;;;;;;4.28;0.47;;;15.00;99.90;;;;;;5065922;28;20056;-81
2022/06/12 05:19:34;;;;;;;2.25;0.30;;;15.10;99.90;;;;;;5048941;28;20802;-81
2022/06/12 05:22:01;;;;;;;3.20;0.70;;;15.20;99.90;;;;;;5051302;28;20045;-82
2022/06/12 05:24:27;;;;;;;5.65;0.70;;;15.20;99.90;;;;;;5053133;28;20029;-81
2022/06/12 05:26:54;;;;;;;4.60;0.60;;;15.30;99.90;;;;;;5047856;28;20070;-81
2022/06/12 05:29:29;;;;;;;9.60;1.42;;;15.40;99.90;;;;;;5050534;28;20017;-81
2022/06/12 05:31:56;;;;;;;3.85;0.55;;;15.30;99.90;;;;;;5055849;28;20040;-82
2022/06/12 05:34:25;;;;;;;3.47;0.60;;;15.40;99.90;;;;;;5050437;28;20029;-82
2022/06/12 05:36:51;;;;;;;8.00;0.80;;;15.50;99.90;;;;;;5048070;28;20092;-81
2022/06/12 05:39:18;;;;;;;5.28;0.70;;;15.50;99.90;;;;;;5049180;28;20017;-81
2022/06/12 05:41:44;;;;;;;7.45;1.00;;;15.70;99.90;;;;;;5064400;28;20047;-80
2022/06/12 05:44:10;;;;;;;11.35;1.15;;;15.80;99.90;;;;;;5063538;28;20029;-83
2022/06/12 05:46:36;;;;;;;7.65;1.20;;;15.90;99.90;;;;;;5055402;28;20365;-81
2022/06/12 05:49:02;;;;;;;7.65;1.52;;;15.80;99.90;;;;;;5047665;28;20380;-81
2022/06/12 05:51:28;;;;;;;7.30;0.90;;;15.70;99.90;;;;;;5040096;28;20051;-82
2022/06/12 05:53:53;;;;;;;7.57;1.23;;;15.70;99.90;;;;;;5050893;28;20021;-81
2022/06/12 05:56:22;;;;;;;5.82;1.10;;;16.00;99.90;;;;;;5066913;28;20054;-82
2022/06/12 05:58:48;;;;;;;12.60;1.73;;;16.20;99.90;;;;;;5050589;28;20036;-82
2022/06/12 06:01:16;;;;;;;7.75;1.42;;;16.00;99.90;;;;;;5049421;28;20057;-83
2022/06/12 06:03:42;;;;;;;7.65;1.00;;;16.30;99.90;;;;;;5048768;28;20080;-81
2022/06/12 06:06:09;;;;;;;7.85;1.20;;;16.40;99.90;;;;;;5050854;28;20536;-82
2022/06/12 06:08:35;;;;;;;5.60;1.38;;;16.60;99.90;;;;;;5051186;28;20112;-81
2022/06/12 06:11:01;;;;;;;10.45;1.20;;;16.60;99.90;;;;;;5054685;28;20078;-82
2022/06/12 06:13:27;;;;;;;10.30;1.42;;;16.80;99.90;;;;;;5054231;28;20161;-82
2022/06/12 06:15:53;;;;;;;11.10;1.45;;;16.90;99.90;;;;;;5039808;28;20423;-81
2022/06/12 06:18:19;;;;;;;9.90;1.58;;;16.90;99.90;;;;;;5051307;28;20063;-82
2022/06/12 06:20:46;;;;;;;10.95;1.80;;;17.00;99.90;;;;;;5069517;28;20024;-81
2022/06/12 06:23:12;;;;;;;14.75;3.00;;;16.70;99.90;;;;;;5057049;28;20059;-81
2022/06/12 06:25:38;;;;;;;17.90;2.45;;;16.60;99.90;;;;;;5054391;28;20037;-80
2022/06/12 06:28:05;;;;;;;12.40;3.00;;;16.60;99.90;;;;;;5049767;28;20099;-81
2022/06/12 06:30:31;;;;;;;9.27;2.10;;;16.60;99.90;;;;;;5050933;28;20091;-81
2022/06/12 06:32:57;;;;;;;21.27;3.60;;;16.70;99.90;;;;;;5033390;28;20032;-80
2022/06/12 06:35:24;;;;;;;9.25;2.25;;;16.70;99.90;;;;;;5054916;28;20128;-81
2022/06/12 06:37:51;;;;;;;11.70;2.63;;;17.00;99.90;;;;;;5055020;28;20060;-81
2022/06/12 06:40:18;;;;;;;13.48;2.53;;;17.10;99.90;;;;;;5067100;28;20460;-81
2022/06/12 06:42:44;;;;;;;12.38;2.50;;;17.10;99.90;;;;;;5065684;28;20045;-81
2022/06/12 06:48:00;;;;;;;15.17;2.50;;;17.50;99.90;;;;;;5048952;28;20147;-81
2022/06/12 06:50:27;;;;;;;12.93;1.70;;;17.70;99.90;;;;;;5069597;28;20035;-82
2022/06/12 06:52:52;;;;;;;12.82;2.53;;;17.70;99.90;;;;;;5053830;28;20056;-82
2022/06/12 06:55:19;;;;;;;19.10;2.50;;;17.50;99.90;;;;;;5055050;28;20118;-81
2022/06/12 06:57:47;;;;;;;7.95;1.38;;;17.90;99.90;;;;;;5054353;28;20025;-82
2022/06/12 07:00:17;;;;;;;11.82;2.28;;;18.70;99.90;;;;;;5055027;28;20582;-83
2022/06/12 07:02:43;;;;;;;7.90;1.50;;;18.40;99.90;;;;;;5068430;28;20128;-80
2022/06/12 07:05:09;;;;;;;10.77;1.20;;;19.00;99.90;;;;;;5055585;28;20604;-81
2022/06/12 07:07:36;;;;;;;10.52;0.90;;;19.00;99.90;;;;;;5059026;28;20035;-81
2022/06/12 07:10:05;;;;;;;11.25;1.83;;;19.10;99.90;;;;;;5058724;28;20155;-79
2022/06/12 07:12:31;;;;;;;16.23;1.83;;;18.30;99.90;;;;;;5057406;28;20319;-81
2022/06/12 07:14:57;;;;;;;10.35;1.00;;;18.30;99.90;;;;;;5067285;28;20202;-81
2022/06/12 07:17:22;;;;;;;12.73;1.90;;;18.60;99.90;;;;;;5058751;28;20453;-82
2022/06/12 07:19:48;;;;;;;8.35;1.50;;;18.40;99.90;;;;;;5042559;28;20059;-81
2022/06/12 07:22:14;;;;;;;10.35;0.90;;;18.50;99.90;;;;;;5053184;28;20135;-81
2022/06/12 07:24:40;;;;;;;9.68;1.45;;;18.70;99.90;;;;;;5057750;28;20078;-81
2022/06/12 07:27:06;;;;;;;8.50;1.13;;;18.80;99.90;;;;;;5041667;28;20433;-80
2022/06/12 07:29:31;;;;;;;11.68;1.60;;;19.20;99.90;;;;;;5054527;28;20035;-81
2022/06/12 07:31:59;;;;;;;8.98;0.90;;;19.10;99.90;;;;;;5057708;28;20425;-80
2022/06/12 07:34:25;;;;;;;12.90;1.77;;;18.90;99.90;;;;;;5058669;28;21971;-81
2022/06/12 07:36:52;;;;;;;12.55;1.58;;;18.50;99.90;;;;;;5066104;28;20053;-82
2022/06/12 07:39:23;;;;;;;13.35;1.10;;;19.10;99.90;;;;;;5033634;28;20425;-80
2022/06/12 07:41:50;;;;;;;12.02;1.85;;;18.90;99.90;;;;;;5068679;28;20154;-81
2022/06/12 07:44:20;;;;;;;8.38;1.10;;;18.90;99.90;;;;;;5054413;28;20020;-81
2022/06/12 07:46:47;;;;;;;14.55;1.85;;;19.00;99.90;;;;;;5066444;28;20033;-81
2022/06/12 07:49:13;;;;;;;12.88;1.40;;;18.70;99.90;;;;;;5038171;28;20111;-81
2022/06/12 07:51:39;;;;;;;9.25;1.08;;;18.90;99.90;;;;;;5068286;28;20028;-80
2022/06/12 07:54:05;;;;;;;11.93;1.15;;;19.40;99.90;;;;;;5057879;28;20017;-81
2022/06/12 07:56:32;;;;;;;10.60;1.48;;;19.10;99.90;;;;;;5052067;28;20032;-81
2022/06/12 07:58:57;;;;;;;8.63;1.15;;;19.00;99.90;;;;;;5055740;28;20029;-80
2022/06/12 08:01:26;;;;;;;10.95;1.95;;;19.20;99.90;;;;;;5051257;28;20067;-81
2022/06/12 08:03:52;;;;;;;8.93;1.40;;;19.20;99.90;;;;;;5040931;28;20456;-80
2022/06/12 08:06:18;;;;;;;6.90;0.80;;;19.20;99.90;;;;;;5050510;28;20111;-80
2022/06/12 08:08:44;;;;;;;7.70;0.82;;;19.30;99.90;;;;;;5045797;28;20039;-82
2022/06/12 08:11:10;;;;;;;9.00;0.98;;;19.00;99.90;;;;;;5068210;28;20439;-81
2022/06/12 08:13:36;;;;;;;10.23;1.17;;;19.10;99.90;;;;;;5067662;28;20028;-81
2022/06/12 08:16:02;;;;;;;10.93;1.20;;;18.70;99.90;;;;;;5053580;28;20029;-82
2022/06/12 08:18:28;;;;;;;8.70;0.88;;;18.70;99.90;;;;;;5051992;28;20258;-81
2022/06/12 08:21:02;;;;;;;11.45;1.52;;;18.90;99.90;;;;;;5036723;28;20027;-82
2022/06/12 08:23:34;;;;;;;11.32;1.48;;;19.00;99.90;;;;;;5051699;28;20021;-82
2022/06/12 08:26:11;;;;;;;8.27;1.23;;;18.70;99.90;;;;;;5068062;28;20044;-82
2022/06/12 08:28:49;;;;;;;5.57;0.80;;;19.10;99.90;;;;;;5054642;28;20033;-82
2022/06/12 08:31:19;;;;;;;5.57;0.90;;;19.30;99.90;;;;;;5067729;28;20032;-82
2022/06/12 08:33:48;;;;;;;4.57;1.30;;;19.20;99.90;;;;;;5069449;28;20116;-81
2022/06/12 08:36:16;;;;;;;7.15;1.80;;;19.20;99.90;;;;;;5055538;28;20425;-81
2022/06/12 08:38:42;;;;;;;9.20;1.63;;;19.10;99.90;;;;;;5056341;28;20037;-81
2022/06/12 08:41:21;;;;;;;6.10;0.80;;;19.60;99.90;;;;;;5057431;28;20111;-82
2022/06/12 08:44:07;;;;;;;11.17;1.93;;;19.90;99.90;;;;;;5036768;28;20043;-81
2022/06/12 08:46:43;;;;;;;10.13;1.80;;;19.90;99.90;;;;;;5067767;28;20047;-82
2022/06/12 08:49:25;;;;;;;7.70;1.70;;;19.30;99.90;;;;;;5066946;28;20035;-82
2022/06/12 08:52:06;;;;;;;7.28;1.25;;;19.60;99.90;;;;;;5052230;28;20050;-83
2022/06/12 08:54:40;;;;;;;7.03;1.20;;;19.90;99.90;;;;;;5067757;28;20032;-83
2022/06/12 08:57:11;;;;;;;8.95;1.30;;;20.30;99.90;;;;;;5065457;28;20028;-83
2022/06/12 08:59:43;;;;;;;6.57;1.02;;;19.90;99.90;;;;;;5067044;28;20020;-83
2022/06/12 09:02:21;;;;;;;6.13;0.88;;;20.00;99.90;;;;;;5055279;28;20048;-82
2022/06/12 09:04:57;;;;;;;9.50;1.20;;;20.40;99.90;;;;;;5069529;28;20079;-81
2022/06/12 09:07:44;;;;;;;8.00;1.25;;;20.50;99.90;;;;;;5050321;28;20117;-82
2022/06/12 09:10:21;;;;;;;10.00;1.50;;;20.60;99.90;;;;;;5069257;28;20025;-85
2022/06/12 09:13:38;;;;;;;10.15;0.70;;;21.00;99.90;;;;;;5065365;28;20052;-84
2022/06/12 09:16:35;;;;;;;8.40;1.20;;;20.50;99.90;;;;;;5044854;28;20076;-86
2022/06/12 09:19:14;;;;;;;6.00;0.70;;;20.50;99.90;;;;;;5059301;28;20032;-82
2022/06/12 09:22:15;;;;;;;12.65;1.90;;;21.50;99.90;;;;;;5056958;28;20036;-82
2022/06/12 09:24:53;;;;;;;7.97;0.70;;;21.30;99.90;;;;;;5037367;28;20059;-83
2022/06/12 09:27:38;;;;;;;5.32;0.70;;;20.70;99.90;;;;;;5050408;28;20089;-83
2022/06/12 09:30:08;;;;;;;7.65;0.98;;;21.40;99.90;;;;;;5055225;28;20156;-83
2022/06/12 09:32:58;;;;;;;5.78;1.05;;;21.10;99.90;;;;;;5038848;28;20139;-82
2022/06/12 09:35:32;;;;;;;4.18;0.50;;;21.90;99.90;;;;;;5047379;28;20021;-84
2022/06/12 09:38:25;;;;;;;4.75;0.60;;;22.40;99.90;;;;;;5048629;28;22159;-84
2022/06/12 09:41:12;;;;;;;4.68;0.40;;;22.10;99.90;;;;;;5068113;28;20056;-83
2022/06/12 09:43:40;;;;;;;8.13;0.60;;;22.20;99.90;;;;;;5050595;28;20041;-83
2022/06/12 09:46:33;;;;;;;5.13;0.55;;;21.50;99.90;;;;;;5055733;28;20032;-83
2022/06/12 09:49:10;;;;;;;7.75;0.82;;;21.30;99.90;;;;;;5066408;28;20173;-84
2022/06/12 09:51:48;;;;;;;3.63;0.60;;;21.20;99.90;;;;;;5067242;28;20468;-83
2022/06/12 09:54:33;;;;;;;4.45;0.50;;;21.40;99.90;;;;;;5052668;28;20036;-83
2022/06/12 09:57:06;;;;;;;4.70;0.40;;;22.00;99.90;;;;;;5049233;28;20032;-82
2022/06/12 09:59:43;;;;;;;2.58;0.40;;;21.50;99.90;;;;;;5064824;28;20103;-84
2022/06/12 10:02:22;;;;;;;4.03;0.50;;;21.40;99.90;;;;;;5063762;28;20416;-83
2022/06/12 10:05:00;;;;;;;5.47;0.57;;;21.40;99.90;;;;;;5056410;28;20040;-83
2022/06/12 10:07:42;;;;;;;4.45;0.40;;;21.20;99.90;;;;;;5055115;28;20819;-84
2022/06/12 10:10:20;;;;;;;3.80;0.65;;;21.40;99.90;;;;;;5047502;28;20086;-85
2022/06/12 10:12:51;;;;;;;4.90;0.55;;;21.50;99.90;;;;;;5043866;28;20032;-83
2022/06/12 10:15:26;;;;;;;5.05;0.40;;;21.20;99.90;;;;;;5062303;28;20183;-83
2022/06/12 10:18:06;;;;;;;3.97;0.82;;;21.30;99.90;;;;;;5047509;28;20087;-84
2022/06/12 10:20:39;;;;;;;3.55;0.50;;;21.50;99.90;;;;;;5061974;28;20024;-84
2022/06/12 10:23:05;;;;;;;7.53;0.40;;;21.90;99.90;;;;;;5062173;28;20083;-86
2022/06/12 10:25:35;;;;;;;4.82;0.55;;;21.60;99.90;;;;;;5049838;28;20092;-84
2022/06/12 10:28:05;;;;;;;3.40;0.40;;;21.40;99.90;;;;;;5047843;28;20029;-84
2022/06/12 10:30:44;;;;;;;3.78;0.40;;;21.40;99.90;;;;;;5047019;28;20020;-84
2022/06/12 10:33:26;;;;;;;3.17;0.40;;;21.40;99.90;;;;;;5047473;28;20028;-83
2022/06/12 10:35:55;;;;;;;3.92;0.55;;;21.40;99.90;;;;;;5046306;28;20132;-83
2022/06/12 10:38:24;;;;;;;4.50;0.50;;;21.60;99.90;;;;;;5049494;28;20025;-83
2022/06/12 10:40:53;;;;;;;5.50;0.50;;;21.90;99.90;;;;;;5061972;28;20404;-83
2022/06/12 10:43:30;;;;;;;7.18;0.80;;;21.30;99.90;;;;;;5048287;28;21861;-82
2022/06/12 10:46:15;;;;;;;6.30;0.90;;;20.90;99.90;;;;;;5056779;28;20121;-80
2022/06/12 10:48:53;;;;;;;3.67;0.40;;;20.90;99.90;;;;;;5064356;28;20463;-81
2022/06/12 10:51:19;;;;;;;2.88;0.40;;;21.50;99.90;;;;;;5051994;28;20438;-82
2022/06/12 10:53:45;;;;;;;3.78;0.60;;;21.90;99.90;;;;;;5049682;28;20025;-83
2022/06/12 10:56:22;;;;;;;4.18;0.60;;;21.60;99.90;;;;;;5048783;28;20029;-82
2022/06/12 10:59:08;;;;;;;3.78;0.40;;;21.80;99.90;;;;;;5051051;28;20028;-84
2022/06/12 11:02:12;;;;;;;3.20;0.35;;;21.50;99.90;;;;;;5048870;28;20060;-83
2022/06/12 11:04:56;;;;;;;8.48;0.88;;;22.30;99.90;;;;;;5050789;28;20109;-80
2022/06/12 11:07:56;;;;;;;4.90;0.50;;;22.00;99.90;;;;;;5066422;28;20060;-83
2022/06/12 11:10:49;;;;;;;4.47;0.50;;;22.30;99.90;;;;;;5066166;28;20036;-84
2022/06/12 11:13:37;;;;;;;4.80;0.63;;;21.60;99.90;;;;;;5050306;28;20090;-83
2022/06/12 11:16:21;;;;;;;5.47;0.60;;;21.50;99.90;;;;;;5056135;28;20131;-83
2022/06/12 11:19:11;;;;;;;4.75;0.50;;;21.50;99.90;;;;;;5052736;28;20454;-84
2022/06/12 11:21:52;;;;;;;7.20;0.52;;;21.80;99.90;;;;;;5052211;28;20461;-81
2022/06/12 11:24:50;;;;;;;6.75;0.77;;;21.50;99.90;;;;;;5056340;28;20068;-84
2022/06/12 11:27:37;;;;;;;7.60;0.70;;;22.00;99.90;;;;;;5062458;28;20032;-88
2022/06/12 11:30:05;;;;;;;5.03;0.57;;;21.80;99.90;;;;;;5046471;28;20052;-83
2022/06/12 11:32:37;;;;;;;4.47;0.60;;;21.70;99.90;;;;;;5048365;28;20028;-83
2022/06/12 11:35:05;;;;;;;6.28;0.50;;;22.00;99.90;;;;;;5050919;28;20081;-83
2022/06/12 11:37:50;;;;;;;5.20;0.77;;;22.10;99.90;;;;;;5050272;28;20044;-87
2022/06/12 11:40:33;;;;;;;5.30;0.90;;;22.20;99.90;;;;;;5038102;28;20888;-82
2022/06/12 11:43:11;;;;;;;3.03;0.57;;;21.80;99.90;;;;;;5050084;28;20468;-83
2022/06/12 11:45:53;;;;;;;5.20;1.10;;;22.70;99.90;;;;;;5056537;28;20042;-83
2022/06/12 11:48:40;;;;;;;5.55;0.50;;;21.90;99.90;;;;;;5065741;28;20033;-83
2022/06/12 11:51:21;;;;;;;4.35;0.50;;;21.50;99.90;;;;;;5053242;28;20032;-80
2022/06/12 11:54:19;;;;;;;3.97;0.57;;;22.10;99.90;;;;;;5067396;28;20036;-83
2022/06/12 11:57:17;;;;;;;4.32;0.52;;;21.90;99.90;;;;;;5053357;28;20035;-82
2022/06/12 12:00:00;;;;;;;5.40;0.55;;;22.30;99.90;;;;;;5067287;28;20079;-88
2022/06/12 12:02:44;;;;;;;6.22;0.90;;;22.00;99.90;;;;;;5054787;28;20036;-87
2022/06/12 12:05:25;;;;;;;3.70;0.70;;;22.00;99.90;;;;;;5070777;28;20039;-83
2022/06/12 12:08:24;;;;;;;4.93;0.50;;;22.40;99.90;;;;;;5058075;28;20040;-82
2022/06/12 12:10:59;;;;;;;3.60;0.47;;;22.10;99.90;;;;;;5054487;28;20032;-80
2022/06/12 12:13:29;;;;;;;4.07;0.40;;;22.50;99.90;;;;;;5049956;28;20388;-84
2022/06/12 12:16:00;;;;;;;3.38;0.45;;;22.20;99.90;;;;;;5050292;28;20025;-83
2022/06/12 12:18:50;;;;;;;4.63;0.70;;;21.60;99.90;;;;;;5066325;28;20117;-87
2022/06/12 12:21:38;;;;;;;2.88;0.40;;;21.50;99.90;;;;;;5065371;28;20058;-84
2022/06/12 12:24:07;;;;;;;4.75;0.52;;;22.10;99.90;;;;;;5036110;28;20119;-84
2022/06/12 12:26:38;;;;;;;2.85;0.30;;;22.30;99.90;;;;;;5051262;28;20032;-84
2022/06/12 12:29:10;;;;;;;4.18;0.47;;;22.60;99.90;;;;;;5064556;28;20043;-82
2022/06/12 12:31:37;;;;;;;2.72;0.40;;;21.70;99.90;;;;;;5048453;28;20028;-82
2022/06/12 12:34:06;;;;;;;5.40;0.38;;;21.70;99.90;;;;;;5047547;28;20111;-84
2022/06/12 12:42:38;;;;;;;3.75;0.43;;;21.60;99.90;;;;;;5049440;28;20047;-85
2022/06/12 12:45:22;;;;;;;4.72;0.40;;;21.30;99.90;;;;;;5064258;28;20036;-86
2022/06/12 12:48:17;;;;;;;3.67;0.50;;;21.30;99.90;;;;;;5064152;28;20040;-82
2022/06/12 12:50:54;;;;;;;0.95;0.20;;;21.60;99.90;;;;;;5062462;28;20098;-80
2022/06/12 12:53:26;;;;;;;2.00;0.30;;;21.60;99.90;;;;;;5049395;28;20048;-81
2022/06/12 12:56:00;;;;;;;3.90;0.38;;;21.80;99.90;;;;;;5055664;28;20020;-82
2022/06/12 12:58:27;;;;;;;3.78;0.30;;;22.20;99.90;;;;;;5049966;28;20047;-82
2022/06/12 13:01:25;;;;;;;3.10;0.30;;;22.10;99.90;;;;;;5051605;28;20037;-84
2022/06/12 13:04:10;;;;;;;2.53;0.20;;;21.80;99.90;;;;;;5026351;28;20130;-83
2022/06/12 13:06:55;;;;;;;2.30;0.20;;;22.40;99.90;;;;;;5066431;28;20064;-83
2022/06/12 13:09:52;;;;;;;1.80;0.30;;;22.10;99.90;;;;;;5051650;28;20029;-83
2022/06/12 13:12:27;;;;;;;4.15;0.30;;;22.10;99.90;;;;;;5037289;28;20039;-81
2022/06/12 13:15:09;;;;;;;2.75;0.30;;;22.10;99.90;;;;;;5066197;28;20438;-88
2022/06/12 13:18:08;;;;;;;1.65;0.20;;;22.00;99.90;;;;;;5034885;28;20060;-84
2022/06/12 13:21:07;;;;;;;2.38;0.20;;;22.10;99.90;;;;;;5050449;28;20040;-83
2022/06/12 13:23:35;;;;;;;2.78;0.30;;;22.40;99.90;;;;;;5052869;28;20472;-82
2022/06/12 13:26:07;;;;;;;2.47;0.30;;;22.00;99.90;;;;;;5064963;28;20044;-82
2022/06/12 13:28:34;;;;;;;2.28;0.30;;;22.00;99.90;;;;;;5063370;28;20032;-81
2022/06/12 13:31:02;;;;;;;4.10;0.30;;;21.80;99.90;;;;;;5063390;28;20036;-84
2022/06/12 13:33:34;;;;;;;4.25;0.43;;;21.60;99.90;;;;;;5050505;28;20024;-82
2022/06/12 13:36:12;;;;;;;5.25;0.30;;;21.60;99.90;;;;;;5045120;28;20052;-85
2022/06/12 13:38:53;;;;;;;2.97;0.73;;;21.20;99.90;;;;;;5047866;28;20091;-81
2022/06/12 13:41:38;;;;;;;2.70;0.30;;;21.40;99.90;;;;;;5063251;28;21145;-84